createdAt,value
2022-08-21T00:00:01.552Z,101667.81
2022-08-21T00:02:30.428Z,101669.13
2022-08-21T00:04:58.490Z,101660.03
2022-08-21T00:07:27.904Z,101663.38
2022-08-21T00:09:56.088Z,101661.31
2022-08-21T00:12:24.055Z,101667.72
2022-08-21T00:14:52.328Z,101669.13
2022-08-21T00:17:25.236Z,101665.44
2022-08-21T00:19:53.271Z,101663.00
2022-08-21T00:22:21.315Z,101653.91
2022-08-21T00:24:50.824Z,101656.78
2022-08-21T00:27:18.850Z,101653.34
2022-08-21T00:29:46.875Z,101651.75
2022-08-21T00:32:14.909Z,101649.81
2022-08-21T00:37:10.834Z,101657.53
2022-08-21T00:39:40.065Z,101662.44
2022-08-21T00:42:09.509Z,101664.50
2022-08-21T00:44:37.542Z,101660.97
2022-08-21T00:47:05.880Z,101660.28
2022-08-21T00:49:33.885Z,101660.66
2022-08-21T00:52:02.303Z,101667.63
2022-08-21T00:54:31.258Z,101660.09
2022-08-21T00:57:01.239Z,101650.91
2022-08-21T00:59:33.442Z,101655.81
2022-08-21T01:02:01.646Z,101657.00
2022-08-21T01:04:29.691Z,101653.81
2022-08-21T01:06:57.708Z,101653.16
2022-08-21T01:09:25.736Z,101652.31
2022-08-21T01:11:53.816Z,101641.56
2022-08-21T01:14:21.842Z,101642.78
2022-08-21T01:16:54.045Z,101637.09
2022-08-21T01:19:22.518Z,101643.97
2022-08-21T01:21:52.082Z,101648.88
2022-08-21T01:24:20.344Z,101650.53
2022-08-21T01:26:48.345Z,101639.59
2022-08-21T01:29:18.859Z,101634.88
2022-08-21T01:31:46.988Z,101644.44
2022-08-21T01:34:16.633Z,101634.50
2022-08-21T01:36:44.788Z,101627.91
2022-08-21T01:39:15.472Z,101630.94
2022-08-21T01:41:43.569Z,101631.06
2022-08-21T01:44:11.632Z,101632.34
2022-08-21T01:46:39.706Z,101629.94
2022-08-21T01:49:07.801Z,101635.78
2022-08-21T01:51:35.833Z,101640.78
2022-08-21T01:54:03.905Z,101633.38
2022-08-21T01:56:37.561Z,101643.78
2022-08-21T01:59:05.627Z,101646.75
2022-08-21T02:01:33.869Z,101633.75
2022-08-21T02:04:01.871Z,101632.38
2022-08-21T02:06:29.948Z,101624.94
2022-08-21T02:08:57.959Z,101626.22
2022-08-21T02:11:26.015Z,101633.28
2022-08-21T02:13:55.510Z,101617.13
2022-08-21T02:16:23.564Z,101615.09
2022-08-21T02:18:51.597Z,101619.25
2022-08-21T02:21:20.123Z,101622.59
2022-08-21T02:23:48.319Z,101622.59
2022-08-21T02:26:16.658Z,101620.09
2022-08-21T02:28:44.679Z,101623.81
2022-08-21T02:31:14.217Z,101621.50
2022-08-21T02:33:42.414Z,101618.81
2022-08-21T02:36:10.840Z,101620.09
2022-08-21T02:38:39.868Z,101612.19
2022-08-21T02:41:08.610Z,101613.03
2022-08-21T02:43:36.650Z,101614.03
2022-08-21T02:46:07.581Z,101612.41
2022-08-21T02:48:37.489Z,101621.50
2022-08-21T02:51:07.071Z,101620.66
2022-08-21T02:53:35.207Z,101613.41
2022-08-21T02:56:04.267Z,101613.03
2022-08-21T02:58:34.344Z,101611.00
2022-08-21T03:01:02.998Z,101611.00
2022-08-21T03:03:31.496Z,101612.66
2022-08-21T03:06:00.900Z,101613.69
2022-08-21T03:08:28.921Z,101609.31
2022-08-21T03:10:56.947Z,101612.00
2022-08-21T03:13:25.069Z,101598.53
2022-08-21T03:15:53.181Z,101599.78
2022-08-21T03:18:21.236Z,101587.69
2022-08-21T03:20:49.307Z,101596.78
2022-08-21T03:23:19.623Z,101586.59
2022-08-21T03:25:47.955Z,101577.66
2022-08-21T03:28:17.045Z,101576.00
2022-08-21T03:30:46.036Z,101585.28
2022-08-21T03:33:15.558Z,101583.81
2022-08-21T03:35:43.929Z,101580.47
2022-08-21T03:38:13.733Z,101578.78
2022-08-21T03:40:43.324Z,101577.09
2022-08-21T03:43:11.417Z,101577.09
2022-08-21T03:45:39.503Z,101587.88
2022-08-21T03:48:07.795Z,101603.19
2022-08-21T03:50:41.061Z,101603.59
2022-08-21T03:53:17.037Z,101611.84
2022-08-21T03:55:47.622Z,101607.66
2022-08-21T03:58:17.520Z,101628.25
2022-08-21T04:00:46.281Z,101619.91
2022-08-21T04:03:14.300Z,101612.50
2022-08-21T04:05:42.578Z,101608.78
2022-08-21T04:08:10.635Z,101614.63
2022-08-21T04:10:39.273Z,101607.09
2022-08-21T04:13:09.032Z,101608.56
2022-08-21T04:15:37.469Z,101605.34
2022-08-21T04:18:05.727Z,101609.72
2022-08-21T04:20:34.104Z,101608.69
2022-08-21T04:23:02.311Z,101607.66
2022-08-21T04:25:30.468Z,101598.94
2022-08-21T04:27:59.000Z,101595.41
2022-08-21T04:30:29.027Z,101600.13
2022-08-21T04:32:58.084Z,101593.09
2022-08-21T04:35:27.246Z,101599.31
2022-08-21T04:37:55.384Z,101593.09
2022-08-21T04:40:25.151Z,101591.63
2022-08-21T04:42:54.120Z,101595.03
2022-08-21T04:45:23.849Z,101586.66
2022-08-21T04:47:53.614Z,101582.69
2022-08-21T04:50:21.695Z,101578.94
2022-08-21T04:53:05.045Z,101571.53
2022-08-21T04:55:33.394Z,101557.72
2022-08-21T04:58:01.461Z,101543.88
2022-08-21T05:00:29.653Z,101537.47
2022-08-21T05:03:00.404Z,101533.78
2022-08-21T05:05:29.986Z,101515.94
2022-08-21T05:07:58.757Z,101523.41
2022-08-21T05:10:26.785Z,101532.50
2022-08-21T05:12:54.984Z,101524.41
2022-08-21T05:15:23.123Z,101522.09
2022-08-21T05:17:53.766Z,101519.84
2022-08-21T05:20:31.094Z,101531.44
2022-08-21T05:22:59.646Z,101542.91
2022-08-21T05:25:28.131Z,101557.09
2022-08-21T05:27:58.112Z,101569.25
2022-08-21T05:30:28.714Z,101579.81
2022-08-21T05:32:58.785Z,101600.00
2022-08-21T05:35:27.163Z,101606.59
2022-08-21T05:37:56.570Z,101617.03
2022-08-21T05:40:24.930Z,101615.75
2022-08-21T05:42:54.297Z,101615.09
2022-08-21T05:45:41.612Z,101628.25
2022-08-21T05:48:12.375Z,101631.59
2022-08-21T05:50:40.528Z,101618.06
2022-08-21T05:53:10.669Z,101625.72
2022-08-21T05:55:44.223Z,101628.78
2022-08-21T05:58:13.705Z,101626.53
2022-08-21T06:00:41.994Z,101618.56
2022-08-21T06:03:13.415Z,101624.41
2022-08-21T06:05:41.440Z,101612.28
2022-08-21T06:08:10.964Z,101617.28
2022-08-21T06:10:39.104Z,101631.84
2022-08-21T06:13:07.115Z,101625.09
2022-08-21T06:15:35.173Z,101623.91
2022-08-21T06:18:03.202Z,101617.47
2022-08-21T06:20:31.817Z,101619.16
2022-08-21T06:23:00.053Z,101617.97
2022-08-21T06:25:30.036Z,101615.94
2022-08-21T06:28:02.961Z,101620.47
2022-08-21T06:30:31.048Z,101614.88
2022-08-21T06:32:59.294Z,101618.06
2022-08-21T06:35:29.814Z,101616.03
2022-08-21T06:37:57.950Z,101617.31
2022-08-21T06:40:26.183Z,101608.88
2022-08-21T06:42:55.731Z,101620.94
2022-08-21T06:45:24.045Z,101611.47
2022-08-21T06:47:52.036Z,101605.03
2022-08-21T06:50:20.626Z,101608.41
2022-08-21T06:52:48.648Z,101611.94
2022-08-21T06:55:21.243Z,101608.03
2022-08-21T06:57:52.422Z,101599.56
2022-08-21T07:00:22.623Z,101606.88
2022-08-21T07:02:50.612Z,101609.88
2022-08-21T07:05:18.879Z,101603.47
2022-08-21T07:07:46.972Z,101608.66
2022-08-21T07:10:22.333Z,101603.72
2022-08-21T07:12:52.556Z,101612.56
2022-08-21T07:15:30.255Z,101615.34
2022-08-21T07:17:59.227Z,101612.06
2022-08-21T07:20:27.612Z,101613.81
2022-08-21T07:22:55.673Z,101602.47
2022-08-21T07:25:24.023Z,101617.25
2022-08-21T07:27:52.093Z,101607.13
2022-08-21T07:30:20.361Z,101609.22
2022-08-21T07:32:51.309Z,101613.41
2022-08-21T07:35:19.544Z,101608.84
2022-08-21T07:37:47.964Z,101599.09
2022-08-21T07:40:16.408Z,101599.66
2022-08-21T07:42:44.891Z,101597.34
2022-08-21T07:45:13.173Z,101597.16
2022-08-21T07:47:42.112Z,101591.38
2022-08-21T07:50:12.853Z,101590.09
2022-08-21T07:52:40.998Z,101602.81
2022-08-21T07:55:10.048Z,101599.16
2022-08-21T07:57:38.201Z,101599.03
2022-08-21T08:00:07.776Z,101598.06
2022-08-21T08:02:40.099Z,101604.97
2022-08-21T08:05:10.121Z,101604.63
2022-08-21T08:07:39.598Z,101606.66
2022-08-21T08:10:08.896Z,101607.44
2022-08-21T08:12:37.069Z,101600.19
2022-08-21T08:15:05.788Z,101590.38
2022-08-21T08:17:34.288Z,101592.84
2022-08-21T08:20:03.413Z,101584.50
2022-08-21T08:22:31.600Z,101588.72
2022-08-21T08:25:01.493Z,101594.34
2022-08-21T08:27:29.530Z,101592.31
2022-08-21T08:29:57.527Z,101596.63
2022-08-21T08:32:25.664Z,101588.16
2022-08-21T08:34:53.776Z,101594.41
2022-08-21T08:37:24.057Z,101594.41
2022-08-21T08:39:56.956Z,101591.31
2022-08-21T08:42:33.778Z,101583.22
2022-08-21T08:45:04.339Z,101583.22
2022-08-21T08:47:32.864Z,101585.16
2022-08-21T08:50:04.490Z,101588.72
2022-08-21T08:52:33.373Z,101595.16
2022-08-21T08:55:04.269Z,101589.56
2022-08-21T08:57:33.707Z,101591.28
2022-08-21T09:00:03.096Z,101597.53
2022-08-21T09:02:31.325Z,101593.38
2022-08-21T09:04:59.991Z,101601.72
2022-08-21T09:07:33.756Z,101595.09
2022-08-21T09:10:08.610Z,101595.53
2022-08-21T09:12:42.200Z,101597.59
2022-08-21T09:15:15.420Z,101607.59
2022-08-21T09:17:55.212Z,101605.59
2022-08-21T09:20:26.252Z,101608.13
2022-08-21T09:23:04.016Z,101608.13
2022-08-21T09:25:34.591Z,101599.97
2022-08-21T09:28:04.226Z,101612.66
2022-08-21T09:30:33.556Z,101608.94
2022-08-21T09:33:01.843Z,101598.47
2022-08-21T09:35:30.060Z,101599.16
2022-08-21T09:38:00.237Z,101606.34
2022-08-21T09:40:32.491Z,101600.28
2022-08-21T09:43:02.546Z,101608.78
2022-08-21T09:45:34.209Z,101598.81
2022-08-21T09:48:13.810Z,101607.13
2022-08-21T09:50:42.656Z,101609.22
2022-08-21T09:53:18.493Z,101613.97
2022-08-21T09:56:08.097Z,101610.81
2022-08-21T09:58:37.054Z,101610.78
2022-08-21T10:01:07.771Z,101613.50
2022-08-21T10:03:35.878Z,101613.28
2022-08-21T10:06:09.554Z,101609.94
2022-08-21T10:08:38.880Z,101612.41
2022-08-21T10:11:07.956Z,101611.31
2022-08-21T10:13:43.797Z,101618.56
2022-08-21T10:16:33.504Z,101621.84
2022-08-21T10:19:07.619Z,101614.81
2022-08-21T10:21:38.201Z,101627.09
2022-08-21T10:24:09.589Z,101630.69
2022-08-21T10:26:45.057Z,101629.09
2022-08-21T10:29:24.668Z,101629.53
2022-08-21T10:31:58.938Z,101621.72
2022-08-21T10:34:33.889Z,101630.22
2022-08-21T10:37:10.860Z,101618.00
2022-08-21T10:39:42.343Z,101630.34
2022-08-21T10:42:34.106Z,101640.59
2022-08-21T10:45:25.918Z,101636.69
2022-08-21T10:47:58.181Z,101646.22
2022-08-21T10:50:32.521Z,101645.19
2022-08-21T10:53:31.899Z,101643.94
2022-08-21T10:56:17.414Z,101639.97
2022-08-21T10:59:12.556Z,101618.94
2022-08-21T11:01:55.086Z,101613.91
2022-08-21T11:04:38.886Z,101625.84
2022-08-21T11:07:21.915Z,101624.19
2022-08-21T11:09:50.827Z,101611.50
2022-08-21T11:12:23.064Z,101618.84
2022-08-21T11:14:56.585Z,101617.59
2022-08-21T11:17:30.986Z,101612.56
2022-08-21T11:20:06.849Z,101610.66
2022-08-21T11:22:40.137Z,101615.19
2022-08-21T11:25:11.702Z,101609.78
2022-08-21T11:27:42.546Z,101618.13
2022-08-21T11:30:11.275Z,101616.03
2022-08-21T11:33:00.220Z,101614.13
2022-08-21T11:35:34.957Z,101620.53
2022-08-21T11:38:14.409Z,101607.84
2022-08-21T11:40:51.627Z,101615.09
2022-08-21T11:43:22.641Z,101606.78
2022-08-21T11:45:52.047Z,101613.25
2022-08-21T11:48:30.850Z,101613.06
2022-08-21T11:51:00.496Z,101611.41
2022-08-21T11:53:31.750Z,101614.78
2022-08-21T11:56:02.379Z,101618.13
2022-08-21T11:58:33.728Z,101613.94
2022-08-21T12:01:03.090Z,101614.19
2022-08-21T12:03:33.138Z,101615.66
2022-08-21T12:06:04.631Z,101620.25
2022-08-21T12:08:34.680Z,101617.91
2022-08-21T12:11:05.474Z,101616.84
2022-08-21T12:13:40.417Z,101619.63
2022-08-21T12:16:12.179Z,101610.53
2022-08-21T12:18:41.148Z,101606.34
2022-08-21T12:21:27.057Z,101602.41
2022-08-21T12:24:07.359Z,101605.03
2022-08-21T12:26:36.889Z,101606.47
2022-08-21T12:29:18.855Z,101609.66
2022-08-21T12:31:56.019Z,101596.69
2022-08-21T12:34:25.604Z,101595.94
2022-08-21T12:36:59.935Z,101590.03
2022-08-21T12:39:29.872Z,101592.53
2022-08-21T12:42:02.026Z,101602.81
2022-08-21T12:44:34.580Z,101593.38
2022-08-21T12:47:05.042Z,101608.88
2022-08-21T12:49:35.817Z,101607.22
2022-08-21T12:52:11.229Z,101606.16
2022-08-21T12:54:41.575Z,101597.44
2022-08-21T12:57:10.006Z,101598.81
2022-08-21T12:59:39.616Z,101589.94
2022-08-21T13:02:15.887Z,101578.78
2022-08-21T13:04:44.069Z,101578.25
2022-08-21T13:07:15.273Z,101576.31
2022-08-21T13:09:50.551Z,101586.94
2022-08-21T13:12:18.758Z,101579.78
2022-08-21T13:14:48.410Z,101584.72
2022-08-21T13:17:25.454Z,101583.03
2022-08-21T13:20:01.108Z,101574.97
2022-08-21T13:22:33.923Z,101569.88
2022-08-21T13:25:06.954Z,101571.34
2022-08-21T13:27:35.614Z,101579.06
2022-08-21T13:30:12.356Z,101562.00
2022-08-21T13:32:42.816Z,101574.19
2022-08-21T13:35:17.214Z,101565.84
2022-08-21T13:37:47.582Z,101563.38
2022-08-21T13:40:17.731Z,101562.59
2022-08-21T13:42:47.173Z,101566.38
2022-08-21T13:45:24.995Z,101568.91
2022-08-21T13:47:54.014Z,101558.13
2022-08-21T13:50:23.808Z,101567.94
2022-08-21T13:52:58.016Z,101559.38
2022-08-21T13:55:29.244Z,101548.56
2022-08-21T13:58:05.988Z,101562.31
2022-08-21T14:00:36.327Z,101561.72
2022-08-21T14:03:07.417Z,101562.13
2022-08-21T14:05:36.482Z,101560.69
2022-08-21T14:08:08.963Z,101568.25
2022-08-21T14:10:42.095Z,101561.38
2022-08-21T14:13:10.219Z,101566.56
2022-08-21T14:15:40.058Z,101561.34
2022-08-21T14:18:31.232Z,101574.88
2022-08-21T14:21:08.774Z,101576.09
2022-08-21T14:23:39.286Z,101571.09
2022-08-21T14:26:08.156Z,101581.47
2022-08-21T14:28:37.256Z,101580.19
2022-08-21T14:31:14.415Z,101571.19
2022-08-21T14:33:43.918Z,101578.22
2022-08-21T14:36:12.238Z,101577.38
2022-08-21T14:38:42.310Z,101578.19
2022-08-21T14:41:17.820Z,101578.38
2022-08-21T14:43:46.056Z,101581.31
2022-08-21T14:46:14.799Z,101577.13
2022-08-21T14:48:43.849Z,101573.38
2022-08-21T14:51:12.189Z,101577.97
2022-08-21T14:53:41.781Z,101578.97
2022-08-21T14:56:10.049Z,101573.38
2022-08-21T14:58:42.460Z,101569.66
2022-08-21T15:01:12.261Z,101574.25
2022-08-21T15:03:40.469Z,101570.09
2022-08-21T15:06:09.066Z,101575.69
2022-08-21T15:08:37.293Z,101569.69
2022-08-21T15:11:18.625Z,101574.63
2022-08-21T15:13:57.224Z,101570.28
2022-08-21T15:16:26.207Z,101558.91
2022-08-21T15:18:54.299Z,101558.25
2022-08-21T15:21:22.501Z,101550.53
2022-08-21T15:23:50.645Z,101560.31
2022-08-21T15:26:20.343Z,101554.31
2022-08-21T15:28:48.516Z,101557.69
2022-08-21T15:31:16.562Z,101560.19
2022-08-21T15:33:44.738Z,101558.97
2022-08-21T15:36:12.824Z,101562.69
2022-08-21T15:38:40.904Z,101561.66
2022-08-21T15:41:09.009Z,101558.94
2022-08-21T15:43:41.637Z,101550.28
2022-08-21T15:46:09.766Z,101537.00
2022-08-21T15:48:37.883Z,101542.63
2022-08-21T15:51:06.116Z,101539.91
2022-08-21T15:53:37.722Z,101538.69
2022-08-21T15:56:05.962Z,101527.41
2022-08-21T15:58:34.053Z,101530.50
2022-08-21T16:01:03.748Z,101529.47
2022-08-21T16:03:31.888Z,101534.88
2022-08-21T16:05:59.936Z,101542.56
2022-08-21T16:08:27.988Z,101548.19
2022-08-21T16:10:56.213Z,101558.41
2022-08-21T16:13:27.177Z,101542.13
2022-08-21T16:15:55.754Z,101549.41
2022-08-21T16:18:26.626Z,101550.66
2022-08-21T16:20:54.676Z,101549.59
2022-08-21T16:23:22.858Z,101544.78
2022-08-21T16:25:50.920Z,101541.63
2022-08-21T16:28:20.876Z,101539.72
2022-08-21T16:30:52.851Z,101540.94
2022-08-21T16:33:24.953Z,101533.34
2022-08-21T16:35:54.464Z,101542.75
2022-08-21T16:38:22.579Z,101541.28
2022-08-21T16:40:50.596Z,101527.56
2022-08-21T16:43:18.688Z,101537.16
2022-08-21T16:45:46.709Z,101535.94
2022-08-21T16:48:14.762Z,101526.13
2022-08-21T16:50:42.808Z,101521.75
2022-08-21T16:53:12.275Z,101516.16
2022-08-21T16:55:40.574Z,101517.63
2022-08-21T16:58:11.425Z,101527.25
2022-08-21T17:00:39.445Z,101531.00
2022-08-21T17:03:07.589Z,101526.44
2022-08-21T17:05:35.630Z,101526.25
2022-08-21T17:08:04.307Z,101523.09
2022-08-21T17:10:33.791Z,101517.91
2022-08-21T17:13:07.585Z,101526.47
2022-08-21T17:15:38.686Z,101527.50
2022-08-21T17:18:07.629Z,101534.41
2022-08-21T17:20:35.752Z,101531.06
2022-08-21T17:23:03.818Z,101536.06
2022-08-21T17:25:33.296Z,101532.97
2022-08-21T17:28:01.444Z,101533.59
2022-08-21T17:30:29.477Z,101530.91
2022-08-21T17:32:57.644Z,101534.06
2022-08-21T17:35:28.286Z,101534.06
2022-08-21T17:37:57.046Z,101542.81
2022-08-21T17:40:28.059Z,101533.22
2022-08-21T17:42:57.615Z,101533.44
2022-08-21T17:45:27.146Z,101531.97
2022-08-21T17:47:55.168Z,101538.25
2022-08-21T17:50:25.020Z,101539.50
2022-08-21T17:52:53.073Z,101541.16
2022-08-21T17:55:21.500Z,101537.22
2022-08-21T17:57:50.377Z,101537.00
2022-08-21T18:00:20.119Z,101540.94
2022-08-21T18:02:51.201Z,101542.38
2022-08-21T18:05:20.249Z,101552.16
2022-08-21T18:07:48.400Z,101542.78
2022-08-21T18:10:16.676Z,101533.66
2022-08-21T18:12:45.356Z,101542.19
2022-08-21T18:15:14.031Z,101530.94
2022-08-21T18:17:45.295Z,101541.94
2022-08-21T18:20:15.364Z,101538.16
2022-08-21T18:22:43.549Z,101541.47
2022-08-21T18:25:12.065Z,101552.66
2022-08-21T18:27:42.628Z,101547.25
2022-08-21T18:30:11.914Z,101548.47
2022-08-21T18:32:39.945Z,101548.47
2022-08-21T18:35:09.893Z,101555.13
2022-08-21T18:37:39.812Z,101555.94
2022-08-21T18:40:09.571Z,101555.13
2022-08-21T18:42:39.161Z,101555.13
2022-08-21T18:45:08.841Z,101560.97
2022-08-21T18:47:38.936Z,101563.88
2022-08-21T18:50:11.018Z,101563.09
2022-08-21T18:52:43.386Z,101569.75
2022-08-21T18:55:21.478Z,101574.50
2022-08-21T18:57:49.566Z,101578.03
2022-08-21T19:00:19.448Z,101559.28
2022-08-21T19:02:47.798Z,101575.91
2022-08-21T19:05:18.180Z,101582.09
2022-08-21T19:07:46.824Z,101585.03
2022-08-21T19:10:31.135Z,101576.47
2022-08-21T19:12:59.625Z,101574.19
2022-08-21T19:15:28.564Z,101567.97
2022-08-21T19:17:58.432Z,101568.16
2022-08-21T19:20:31.288Z,101568.34
2022-08-21T19:22:59.370Z,101583.94
2022-08-21T19:28:19.546Z,101580.16
2022-08-21T19:30:55.014Z,101594.06
2022-08-21T19:33:24.762Z,101592.78
2022-08-21T19:35:54.267Z,101591.50
2022-08-21T19:38:22.365Z,101595.41
2022-08-21T19:40:50.508Z,101596.88
2022-08-21T19:43:23.375Z,101602.41
2022-08-21T19:45:51.829Z,101608.38
2022-08-21T19:48:20.214Z,101601.97
2022-08-21T19:50:48.436Z,101597.84
2022-08-21T19:53:17.965Z,101604.31
2022-08-21T19:55:48.230Z,101593.94
2022-08-21T19:58:24.916Z,101584.38
2022-08-21T20:00:53.022Z,101574.00
2022-08-21T20:03:21.311Z,101579.03
2022-08-21T20:05:49.543Z,101593.19
2022-08-21T20:08:20.586Z,101606.03
2022-08-21T20:10:49.959Z,101600.41
2022-08-21T20:13:21.510Z,101576.28
2022-08-21T20:15:50.398Z,101585.22
2022-08-21T20:18:18.559Z,101587.94
2022-08-21T20:20:46.763Z,101603.47
2022-08-21T20:23:15.976Z,101602.84
2022-08-21T20:25:47.028Z,101592.03
2022-08-21T20:28:15.272Z,101583.13
2022-08-21T20:30:46.794Z,101562.19
2022-08-21T20:33:16.455Z,101542.25
2022-08-21T20:35:48.410Z,101527.56
2022-08-21T20:38:16.484Z,101542.50
2022-08-21T20:40:44.778Z,101549.56
2022-08-21T20:43:14.289Z,101552.09
2022-08-21T20:45:42.449Z,101558.97
2022-08-21T20:48:12.291Z,101570.38
2022-08-21T20:50:42.003Z,101568.13
2022-08-21T20:53:24.633Z,101564.59
2022-08-21T20:55:52.700Z,101555.84
2022-08-21T20:58:29.710Z,101540.66
2022-08-21T21:00:57.942Z,101554.63
2022-08-21T21:03:32.583Z,101558.53
2022-08-21T21:06:02.577Z,101561.88
2022-08-21T21:08:32.349Z,101579.97
2022-08-21T21:11:01.448Z,101580.56
2022-08-21T21:13:32.251Z,101574.53
2022-08-21T21:16:03.491Z,101552.91
2022-08-21T21:18:33.640Z,101545.41
2022-08-21T21:21:05.608Z,101549.50
2022-08-21T21:23:36.953Z,101539.94
2022-08-21T21:26:09.715Z,101546.97
2022-08-21T21:28:48.149Z,101536.97
2022-08-21T21:31:17.299Z,101531.16
2022-08-21T21:33:46.334Z,101529.88
2022-08-21T21:36:20.603Z,101523.22
2022-08-21T21:38:52.835Z,101521.53
2022-08-21T21:41:25.062Z,101524.81
2022-08-21T21:44:06.324Z,101522.34
2022-08-21T21:46:37.353Z,101521.06
2022-08-21T21:49:20.789Z,101530.19
2022-08-21T21:52:00.322Z,101522.22
2022-08-21T21:54:52.364Z,101516.59
2022-08-21T21:57:28.514Z,101507.25
2022-08-21T22:00:00.171Z,101532.09
2022-08-21T22:02:39.720Z,101530.44
2022-08-21T22:05:11.671Z,101528.31
2022-08-21T22:07:43.572Z,101526.19
2022-08-21T22:10:19.713Z,101520.34
2022-08-21T22:13:09.875Z,101522.63
2022-08-21T22:15:41.390Z,101521.97
2022-08-21T22:18:11.260Z,101517.53
2022-08-21T22:20:41.874Z,101512.28
2022-08-21T22:23:15.960Z,101511.22
2022-08-21T22:25:45.972Z,101504.56
2022-08-21T22:28:18.224Z,101510.91
2022-08-21T22:30:56.328Z,101508.34
2022-08-21T22:33:25.933Z,101514.50
2022-08-21T22:35:58.788Z,101528.94
2022-08-21T22:38:33.316Z,101532.09
2022-08-21T22:41:17.305Z,101529.50
2022-08-21T22:43:55.810Z,101527.75
2022-08-21T22:46:46.248Z,101543.91
2022-08-21T22:49:22.616Z,101551.09
2022-08-21T22:51:56.589Z,101541.72
2022-08-21T22:54:31.589Z,101540.22
2022-08-21T22:57:00.792Z,101522.22
2022-08-21T22:59:29.839Z,101538.38
2022-08-21T23:02:03.502Z,101531.72
2022-08-21T23:04:33.763Z,101545.94
2022-08-21T23:07:06.067Z,101554.72
2022-08-21T23:09:35.991Z,101555.13
2022-08-21T23:12:21.480Z,101557.44
2022-08-21T23:14:54.872Z,101559.28
2022-08-21T23:17:30.676Z,101549.34
2022-08-21T23:20:04.312Z,101542.09
2022-08-21T23:22:37.353Z,101533.19
2022-08-21T23:25:18.440Z,101522.44
2022-08-21T23:27:57.184Z,101537.94
2022-08-21T23:30:31.504Z,101533.94
2022-08-21T23:33:30.169Z,101539.16
2022-08-21T23:36:21.897Z,101531.44
2022-08-21T23:39:01.103Z,101537.22
2022-08-21T23:41:34.400Z,101533.03
2022-08-21T23:44:10.753Z,101528.47
2022-08-21T23:46:51.228Z,101529.31
2022-08-21T23:49:30.584Z,101540.91
2022-08-21T23:52:04.925Z,101526.63
2022-08-21T23:54:37.077Z,101521.06
2022-08-21T23:57:10.622Z,101528.97
2022-08-21T23:59:44.729Z,101519.84
